Time;durP1;ratioP1;P1;durP2;ratioP2;P2;SDS_P1;SDS_P2;PMS_P1;PMS_P2;Temp;Humidity;BMP_temperature;BMP_pressure;BME280_temperature;BME280_humidity;BME280_pressure;Samples;Min_cycle;Max_cycle;Signal;HPM_P1;HPM_P2
2021/05/06 00:02:45;;;;;;;4.70;2.38;;;13.50;67.60;;;;;;5056266;28;20029;-85
2021/05/06 00:30:08;;;;;;;2.58;2.33;;;13.40;68.40;;;;;;5055622;28;20490;-83
2021/05/06 00:32:33;;;;;;;2.67;2.47;;;13.40;67.90;;;;;;5055091;28;20480;-83
2021/05/06 00:34:59;;;;;;;2.60;2.40;;;13.40;67.90;;;;;;5054094;28;20058;-85
2021/05/06 00:37:24;;;;;;;4.50;2.75;;;13.40;67.90;;;;;;5053914;28;20029;-84
2021/05/06 00:39:59;;;;;;;4.63;2.30;;;13.40;67.90;;;;;;5053862;28;20028;-86
2021/05/06 01:03:58;;;;;;;2.15;1.88;;;13.40;69.00;;;;;;5054609;28;20093;-83
2021/05/06 01:06:14;;;;;;;6.00;2.35;;;13.40;68.90;;;;;;5054409;28;20033;-85
2021/05/06 01:08:46;;;;;;;2.67;2.30;;;13.40;69.00;;;;;;5053545;28;20025;-86
2021/05/06 01:14:08;;;;;;;4.28;2.00;;;13.40;69.50;;;;;;5054486;28;20074;-85
2021/05/06 01:16:35;;;;;;;2.35;1.88;;;13.40;69.80;;;;;;5053326;28;20093;-85
2021/05/06 01:19:00;;;;;;;3.05;2.17;;;13.30;70.40;;;;;;5054494;28;20025;-85
2021/05/06 01:21:26;;;;;;;2.30;1.90;;;13.30;70.50;;;;;;5052998;28;20025;-86
2021/05/06 01:23:53;;;;;;;1.98;1.80;;;13.30;70.70;;;;;;5053229;28;20021;-86
2021/05/06 01:26:43;;;;;;;4.93;2.60;;;13.30;71.10;;;;;;5053796;28;20114;-86
2021/05/06 01:29:14;;;;;;;6.53;3.55;;;13.40;71.30;;;;;;5054412;28;20049;-85
2021/05/06 01:31:45;;;;;;;5.47;3.63;;;13.30;71.30;;;;;;5052910;28;20118;-86
2021/05/06 01:34:20;;;;;;;6.05;3.15;;;13.30;71.40;;;;;;5053066;28;20382;-84
2021/05/06 01:36:51;;;;;;;4.57;3.00;;;13.40;71.50;;;;;;5053067;28;20025;-87
2021/05/06 01:42:47;;;;;;;3.97;2.92;;;13.30;71.90;;;;;;5033118;28;20061;-85
2021/05/06 01:48:01;;;;;;;3.85;2.33;;;13.20;73.00;;;;;;5034362;28;20032;-84
2021/05/06 01:50:39;;;;;;;4.22;2.70;;;13.20;73.90;;;;;;5032877;28;20052;-86
2021/05/06 01:58:44;;;;;;;3.40;2.90;;;13.20;75.20;;;;;;5034049;28;20044;-86
2021/05/06 02:01:10;;;;;;;3.33;2.70;;;13.10;75.60;;;;;;5032871;28;20032;-86
2021/05/06 02:03:36;;;;;;;5.03;3.20;;;13.10;75.90;;;;;;5034011;28;20029;-86
2021/05/06 02:06:03;;;;;;;4.00;2.90;;;13.10;76.40;;;;;;5041134;28;20474;-84
2021/05/06 02:08:29;;;;;;;5.13;3.50;;;13.10;77.20;;;;;;5052461;28;20036;-85
2021/05/06 02:10:58;;;;;;;6.10;3.45;;;13.10;77.50;;;;;;5053998;28;20029;-86
2021/05/06 02:13:24;;;;;;;4.97;3.30;;;13.10;77.70;;;;;;5053709;28;20428;-85
2021/05/06 02:16:05;;;;;;;3.70;2.92;;;13.10;78.10;;;;;;5053777;28;20087;-88
2021/05/06 02:18:35;;;;;;;4.05;3.22;;;13.10;78.20;;;;;;5053763;28;20025;-86
2021/05/06 02:21:00;;;;;;;4.50;3.00;;;13.10;78.90;;;;;;5053775;28;20067;-87
2021/05/06 02:23:26;;;;;;;4.45;3.20;;;13.00;79.10;;;;;;5053408;28;20487;-86
2021/05/06 02:25:52;;;;;;;5.05;3.20;;;13.00;79.30;;;;;;5035919;28;20471;-86
2021/05/06 02:28:17;;;;;;;5.75;3.40;;;13.00;79.70;;;;;;5033691;28;20383;-86
2021/05/06 02:30:43;;;;;;;6.88;4.28;;;13.00;80.20;;;;;;5032310;28;20025;-86
2021/05/06 02:33:09;;;;;;;8.32;3.88;;;13.00;80.40;;;;;;5032033;28;20033;-86
2021/05/06 02:35:37;;;;;;;4.53;3.08;;;12.90;80.70;;;;;;5033497;28;20036;-85
2021/05/06 02:38:04;;;;;;;4.60;3.47;;;12.90;80.80;;;;;;5045602;28;20075;-87
2021/05/06 02:40:30;;;;;;;6.32;3.70;;;13.00;80.90;;;;;;5056096;28;20029;-82
2021/05/06 02:42:56;;;;;;;4.90;3.40;;;12.90;81.00;;;;;;5056466;28;20062;-85
2021/05/06 02:45:21;;;;;;;4.07;3.20;;;12.90;80.80;;;;;;5056445;28;20017;-83
2021/05/06 02:47:47;;;;;;;4.10;3.35;;;12.90;80.80;;;;;;5056528;28;20032;-80
2021/05/06 02:50:19;;;;;;;3.92;3.00;;;12.90;80.80;;;;;;5056786;28;20028;-83
2021/05/06 02:55:40;;;;;;;5.35;3.10;;;12.90;80.80;;;;;;5047766;28;20025;-83
2021/05/06 03:03:15;;;;;;;4.28;2.28;;;12.90;80.40;;;;;;5037042;28;20032;-83
2021/05/06 03:05:41;;;;;;;5.03;2.50;;;12.90;80.20;;;;;;5035615;28;20116;-83
2021/05/06 03:08:20;;;;;;;3.80;2.45;;;12.80;80.20;;;;;;5036885;28;20537;-82
2021/05/06 03:23:44;;;;;;;6.97;4.35;;;12.90;79.90;;;;;;5036480;28;20467;-83
2021/05/06 03:26:11;;;;;;;5.47;3.28;;;12.90;79.80;;;;;;5035297;28;20053;-83
2021/05/06 03:28:41;;;;;;;5.25;3.80;;;12.90;79.70;;;;;;5036368;28;20188;-82
2021/05/06 03:31:48;;;;;;;5.15;3.25;;;12.90;79.60;;;;;;5035090;28;20029;-83
2021/05/06 03:42:27;;;;;;;4.25;2.78;;;12.70;80.10;;;;;;5016866;28;20087;-82
2021/05/06 03:45:09;;;;;;;3.80;2.47;;;12.70;80.10;;;;;;5017891;28;20025;-83
2021/05/06 04:16:52;;;;;;;4.20;2.78;;;13.10;80.00;;;;;;5036361;28;20040;-82
2021/05/06 04:37:33;;;;;;;5.72;3.80;;;13.60;78.70;;;;;;5055081;28;20078;-81
2021/05/06 05:06:23;;;;;;;3.88;2.63;;;14.50;74.60;;;;;;5035096;28;20032;-80
2021/05/06 18:36:43;;;;;;;50.53;24.05;;;11.20;87.50;;;;;;5068807;28;20380;-78
2021/05/06 18:39:09;;;;;;;56.50;26.67;;;11.30;88.70;;;;;;5070799;28;20083;-78
2021/05/06 18:41:35;;;;;;;63.90;29.27;;;11.30;89.80;;;;;;5069994;28;20474;-78
2021/05/06 18:44:02;;;;;;;69.30;30.73;;;11.30;90.30;;;;;;5069732;28;20029;-78
2021/05/06 18:46:27;;;;;;;54.03;28.55;;;11.30;90.60;;;;;;5069708;28;20025;-78
2021/05/06 18:48:53;;;;;;;58.08;29.60;;;11.30;90.90;;;;;;5069896;28;20075;-78
2021/05/06 18:51:20;;;;;;;55.97;28.65;;;11.40;91.00;;;;;;5069384;28;20028;-77
2021/05/06 18:53:47;;;;;;;67.18;31.08;;;11.50;91.20;;;;;;5070965;28;20033;-78
2021/05/06 18:56:13;;;;;;;70.38;34.90;;;11.50;91.20;;;;;;5069342;28;20040;-77
2021/05/06 18:58:41;;;;;;;77.13;38.92;;;11.60;91.30;;;;;;5069278;28;20379;-77
2021/05/06 19:01:07;;;;;;;83.05;38.45;;;11.60;91.40;;;;;;5070905;28;20017;-77
2021/05/06 19:03:32;;;;;;;74.28;37.55;;;11.60;91.50;;;;;;5070932;28;20021;-84
2021/05/06 19:05:58;;;;;;;70.10;34.78;;;11.60;91.50;;;;;;5070675;28;20154;-82
2021/05/06 19:08:24;;;;;;;82.00;36.83;;;11.70;91.40;;;;;;5070226;28;20047;-82
2021/05/06 19:10:50;;;;;;;68.22;33.88;;;11.70;91.40;;;;;;5070265;28;20029;-81
2021/05/06 19:13:19;;;;;;;65.95;32.20;;;11.70;91.40;;;;;;5070152;28;20021;-82
2021/05/06 19:15:44;;;;;;;74.95;33.15;;;11.80;91.20;;;;;;5070165;28;20471;-83
2021/05/06 19:18:10;;;;;;;63.28;33.15;;;11.80;91.10;;;;;;5070225;28;20020;-83
2021/05/06 19:20:36;;;;;;;74.82;37.67;;;11.70;91.00;;;;;;5070180;28;20074;-83
2021/05/06 19:23:02;;;;;;;74.25;37.08;;;11.70;91.00;;;;;;5070180;28;20094;-82
2021/05/06 19:25:28;;;;;;;73.50;38.42;;;11.70;91.00;;;;;;5070253;28;20479;-82
2021/05/06 19:27:54;;;;;;;70.80;37.92;;;11.70;91.00;;;;;;5069656;28;20032;-85
2021/05/06 19:30:20;;;;;;;70.80;36.60;;;11.70;90.90;;;;;;5069030;28;20021;-89
2021/05/06 19:32:48;;;;;;;73.65;36.78;;;11.70;90.90;;;;;;5069405;28;20025;-93
2021/05/06 19:35:15;;;;;;;77.43;37.63;;;11.70;90.90;;;;;;5069004;28;20049;-91
2021/05/06 19:37:40;;;;;;;74.70;36.92;;;11.70;90.80;;;;;;5069616;28;20363;-93
2021/05/06 19:40:07;;;;;;;73.07;34.45;;;11.70;90.80;;;;;;5069533;28;20027;-92
2021/05/06 19:42:44;;;;;;;67.72;32.67;;;11.60;90.80;;;;;;5070438;28;20033;-92
2021/05/06 19:45:25;;;;;;;60.75;29.75;;;11.60;90.90;;;;;;5069374;28;20113;-92
2021/05/06 19:47:50;;;;;;;63.75;30.48;;;11.50;90.80;;;;;;5058366;28;20074;-92
2021/05/06 19:50:16;;;;;;;62.85;30.25;;;11.60;91.00;;;;;;5055982;28;20391;-92
2021/05/06 19:52:42;;;;;;;61.83;29.95;;;11.50;90.90;;;;;;5057145;28;20487;-92
2021/05/06 19:55:08;;;;;;;58.97;27.95;;;11.50;90.80;;;;;;5055946;28;20029;-93
2021/05/06 19:57:34;;;;;;;58.03;28.00;;;11.50;90.80;;;;;;5055953;28;20020;-92
2021/05/06 20:00:00;;;;;;;49.15;24.77;;;11.40;90.70;;;;;;5055962;28;20493;-93
2021/05/06 20:02:25;;;;;;;51.90;23.73;;;11.40;90.70;;;;;;5055846;28;20029;-93
2021/05/06 20:04:51;;;;;;;53.30;24.67;;;11.40;90.80;;;;;;5056950;28;20031;-93
2021/05/06 20:07:17;;;;;;;47.15;23.63;;;11.30;90.70;;;;;;5055772;28;20025;-91
2021/05/06 20:09:42;;;;;;;44.75;23.63;;;11.30;90.70;;;;;;5055826;28;20052;-91
2021/05/06 20:12:08;;;;;;;52.63;26.95;;;11.20;90.80;;;;;;5055523;28;20079;-92
2021/05/06 20:14:38;;;;;;;54.45;27.83;;;11.20;90.80;;;;;;5055470;28;20086;-92
2021/05/06 20:17:04;;;;;;;53.43;27.73;;;11.10;90.80;;;;;;5055577;28;20075;-93
2021/05/06 20:19:35;;;;;;;75.07;37.78;;;11.10;90.80;;;;;;5055450;28;20024;-93
2021/05/06 20:24:27;;;;;;;312.67;101.00;;;11.00;90.90;;;;;;5056782;28;20028;-94
2021/05/06 20:26:53;;;;;;;345.30;109.10;;;11.10;91.00;;;;;;5055453;28;20072;-94
2021/05/06 20:29:19;;;;;;;256.27;83.65;;;11.10;91.00;;;;;;5056009;28;20078;-93
2021/05/06 20:31:44;;;;;;;191.13;69.25;;;11.10;90.80;;;;;;5055348;28;20238;-94
2021/05/06 20:34:10;;;;;;;156.48;55.33;;;11.10;90.80;;;;;;5055480;28;20375;-94
2021/05/06 20:36:36;;;;;;;120.38;45.33;;;11.10;90.80;;;;;;5055048;28;20052;-93
2021/05/06 20:39:11;;;;;;;94.90;42.60;;;11.00;90.70;;;;;;5055343;28;20033;-93
2021/05/06 20:41:38;;;;;;;55.50;30.23;;;11.00;90.70;;;;;;5055147;28;20071;-94
2021/05/06 20:44:49;;;;;;;56.40;29.13;;;11.00;90.60;;;;;;5055047;28;20024;-94
2021/05/06 20:47:07;;;;;;;51.70;27.85;;;11.00;90.50;;;;;;5053046;28;20356;-94
2021/05/06 20:49:34;;;;;;;53.20;28.15;;;11.00;90.50;;;;;;5055011;28;20367;-93
2021/05/06 20:51:59;;;;;;;43.78;25.67;;;11.00;90.50;;;;;;5054773;28;20031;-93
2021/05/06 20:54:25;;;;;;;45.72;25.20;;;11.00;90.40;;;;;;5054778;28;20024;-94
2021/05/06 20:56:50;;;;;;;42.28;25.42;;;11.00;90.70;;;;;;5054852;28;20075;-93
2021/05/06 20:59:16;;;;;;;38.60;23.38;;;10.90;90.60;;;;;;5054076;28;20108;-93
2021/05/06 21:01:42;;;;;;;39.28;24.63;;;10.90;90.60;;;;;;5054793;28;20478;-94
2021/05/06 21:04:07;;;;;;;41.38;24.70;;;10.90;90.60;;;;;;5054685;28;20438;-94
2021/05/06 21:06:33;;;;;;;39.95;23.33;;;10.90;90.60;;;;;;5054673;28;20438;-94
2021/05/06 21:09:00;;;;;;;38.72;23.40;;;10.90;90.50;;;;;;5054703;28;20417;-94
2021/05/06 21:11:25;;;;;;;41.40;24.05;;;10.90;90.50;;;;;;5054533;28;20031;-93
2021/05/06 21:13:52;;;;;;;41.70;25.75;;;10.80;90.40;;;;;;5054500;28;20120;-94
2021/05/06 21:16:18;;;;;;;44.47;26.48;;;10.80;90.60;;;;;;5054299;28;20024;-93
2021/05/06 21:18:44;;;;;;;41.88;25.45;;;10.70;90.50;;;;;;5054434;28;20078;-94
2021/05/06 21:21:09;;;;;;;37.58;23.27;;;10.70;90.60;;;;;;5054276;28;20387;-94
2021/05/06 21:23:35;;;;;;;40.97;23.63;;;10.70;90.60;;;;;;5054605;28;20040;-94
2021/05/06 21:26:01;;;;;;;36.60;23.48;;;10.70;90.40;;;;;;5054422;28;20024;-94
2021/05/06 21:28:26;;;;;;;39.28;23.25;;;10.70;90.40;;;;;;5054245;28;20593;-93
2021/05/06 21:30:52;;;;;;;44.90;24.27;;;10.70;90.40;;;;;;5054104;28;20060;-94
2021/05/06 21:33:18;;;;;;;40.92;24.38;;;10.60;90.40;;;;;;5054183;28;20029;-94
2021/05/06 21:35:43;;;;;;;41.95;24.58;;;10.50;90.50;;;;;;5053793;28;20057;-94
2021/05/06 21:38:09;;;;;;;38.20;22.50;;;10.50;90.50;;;;;;5053985;28;20021;-95
2021/05/06 21:40:35;;;;;;;36.33;22.05;;;10.50;90.40;;;;;;5054017;28;20025;-95
2021/05/06 21:43:05;;;;;;;35.20;22.67;;;10.50;90.40;;;;;;5054011;28;20116;-96
2021/05/06 21:45:31;;;;;;;38.30;22.45;;;10.40;90.50;;;;;;5053944;28;20025;-95
2021/05/06 21:47:56;;;;;;;33.63;21.35;;;10.50;90.50;;;;;;5053909;28;20028;-96
2021/05/06 21:50:22;;;;;;;34.13;21.98;;;10.50;90.50;;;;;;5054249;28;20029;-96
2021/05/06 21:52:48;;;;;;;35.42;21.17;;;10.50;90.50;;;;;;5054531;28;20052;-96
2021/05/06 21:55:13;;;;;;;33.72;20.67;;;10.50;90.40;;;;;;5054763;28;20025;-95
2021/05/06 21:57:39;;;;;;;31.73;18.83;;;10.50;90.30;;;;;;5053658;28;20036;-96
2021/05/06 22:00:10;;;;;;;35.65;20.85;;;10.50;90.20;;;;;;5053618;28;20112;-95
2021/05/06 22:02:36;;;;;;;30.73;18.63;;;10.50;90.30;;;;;;5053544;28;20163;-95
2021/05/06 22:05:01;;;;;;;31.98;18.58;;;10.40;90.20;;;;;;5053536;28;20074;-95
2021/05/06 22:07:27;;;;;;;30.50;18.00;;;10.40;90.20;;;;;;5053427;28;20025;-96
2021/05/06 22:09:53;;;;;;;28.17;17.25;;;10.40;90.30;;;;;;5053264;28;20021;-95
2021/05/06 22:12:18;;;;;;;30.23;18.20;;;10.30;90.30;;;;;;5053367;28;20475;-94
2021/05/06 22:14:44;;;;;;;27.75;17.38;;;10.30;90.20;;;;;;5053648;28;20116;-95
2021/05/06 22:17:10;;;;;;;28.55;17.15;;;10.30;90.10;;;;;;5053533;28;20025;-94
2021/05/06 22:19:35;;;;;;;28.33;16.80;;;10.30;90.30;;;;;;5053477;28;20028;-94
2021/05/06 22:22:54;;;;;;;28.10;16.60;;;10.20;90.30;;;;;;5053410;28;20021;-94
2021/05/06 22:25:20;;;;;;;32.58;18.52;;;10.20;90.20;;;;;;5053320;28;20060;-95
2021/05/06 22:27:47;;;;;;;35.50;19.42;;;10.20;90.20;;;;;;5053233;28;20029;-94
2021/05/06 22:30:16;;;;;;;38.85;22.40;;;10.20;90.20;;;;;;5053279;28;20060;-93
2021/05/06 22:32:43;;;;;;;43.28;23.15;;;10.20;90.20;;;;;;5053258;28;20017;-94
2021/05/06 22:35:09;;;;;;;54.50;28.50;;;10.10;90.10;;;;;;5052876;28;20049;-94
2021/05/06 22:37:34;;;;;;;66.07;35.80;;;10.10;90.40;;;;;;5053209;28;20026;-94
2021/05/06 22:40:00;;;;;;;71.25;38.17;;;10.10;90.10;;;;;;5053441;28;20032;-95
2021/05/06 22:42:26;;;;;;;86.13;44.28;;;10.00;90.20;;;;;;5053229;28;20055;-95
2021/05/06 22:44:52;;;;;;;95.43;48.17;;;10.00;90.20;;;;;;5053051;28;20060;-95
2021/05/06 22:47:17;;;;;;;99.45;49.22;;;10.00;90.20;;;;;;5053029;28;20028;-94
2021/05/06 22:49:43;;;;;;;92.80;46.83;;;10.00;90.10;;;;;;5052945;28;20075;-95
2021/05/06 22:52:09;;;;;;;96.18;46.10;;;10.00;90.00;;;;;;5053066;28;20036;-93
2021/05/06 22:54:35;;;;;;;90.22;45.30;;;9.90;90.10;;;;;;5052942;28;20025;-93
2021/05/06 22:57:01;;;;;;;85.50;43.90;;;9.90;90.20;;;;;;5053013;28;20021;-93
2021/05/06 22:59:27;;;;;;;94.22;46.75;;;9.90;90.30;;;;;;5053022;28;20383;-93
2021/05/06 23:01:53;;;;;;;95.38;48.90;;;9.90;90.30;;;;;;5052951;28;20028;-93
2021/05/06 23:04:18;;;;;;;93.80;47.08;;;9.90;90.30;;;;;;5053109;28;20021;-93
2021/05/06 23:06:44;;;;;;;95.35;47.40;;;9.90;90.20;;;;;;5053054;28;20032;-94
2021/05/06 23:09:10;;;;;;;89.00;45.47;;;9.90;90.10;;;;;;5053852;28;20036;-93
2021/05/06 23:11:36;;;;;;;79.45;40.50;;;9.80;90.30;;;;;;5052887;28;20060;-93
2021/05/06 23:14:02;;;;;;;80.93;38.35;;;9.80;90.00;;;;;;5052774;28;20025;-94
2021/05/06 23:16:31;;;;;;;69.20;37.05;;;9.80;90.00;;;;;;5052866;28;20430;-94
2021/05/06 23:18:57;;;;;;;68.47;36.00;;;9.70;90.10;;;;;;5052765;28;20021;-94
2021/05/06 23:21:23;;;;;;;62.20;32.20;;;9.70;90.10;;;;;;5053050;28;20032;-94
2021/05/06 23:23:49;;;;;;;60.35;31.10;;;9.70;90.20;;;;;;5056480;28;20417;-94
2021/05/06 23:26:15;;;;;;;57.58;30.92;;;9.70;90.20;;;;;;5056695;28;20143;-94
2021/05/06 23:28:41;;;;;;;55.63;29.00;;;9.70;90.10;;;;;;5056618;28;20383;-94
2021/05/06 23:31:08;;;;;;;51.78;28.75;;;9.70;90.00;;;;;;5056649;28;20029;-94
2021/05/06 23:33:33;;;;;;;49.63;27.42;;;9.70;90.00;;;;;;5056382;28;20029;-94
2021/05/06 23:35:59;;;;;;;54.58;26.70;;;9.70;90.10;;;;;;5056014;28;20053;-94
2021/05/06 23:38:28;;;;;;;48.30;26.33;;;9.70;90.10;;;;;;5056410;28;20033;-95
2021/05/06 23:40:54;;;;;;;48.45;26.30;;;9.70;90.00;;;;;;5056100;28;20025;-95
2021/05/06 23:43:20;;;;;;;40.78;23.42;;;9.70;89.80;;;;;;5056240;28;20028;-95
2021/05/06 23:45:46;;;;;;;44.95;23.02;;;9.60;89.70;;;;;;5056168;28;20033;-95
2021/05/06 23:48:26;;;;;;;38.90;21.77;;;9.60;89.60;;;;;;5056171;28;20047;-95
2021/05/06 23:50:56;;;;;;;38.63;20.58;;;9.60;89.80;;;;;;5056202;28;20060;-95
2021/05/06 23:53:22;;;;;;;37.00;20.27;;;9.50;89.90;;;;;;5056288;28;20033;-95
2021/05/06 23:55:52;;;;;;;35.42;20.00;;;9.50;89.90;;;;;;5056067;28;20398;-94
2021/05/06 23:58:49;;;;;;;34.80;19.27;;;9.50;89.90;;;;;;5056213;28;20024;-94
